sensor_id;sensor_type;location;lat;lon;timestamp;P1;durP1;ratioP1;P2;durP2;ratioP2
22357;SDS011;11346;50.150;8.150;2022-08-14T00:01:50;5.10;;;4.40;;
22357;SDS011;11346;50.150;8.150;2022-08-14T00:04:17;7.07;;;4.20;;
22357;SDS011;11346;50.150;8.150;2022-08-14T00:06:44;4.93;;;4.43;;
22357;SDS011;11346;50.150;8.150;2022-08-14T00:09:11;7.10;;;5.00;;
22357;SDS011;11346;50.150;8.150;2022-08-14T00:11:39;7.37;;;4.87;;
22357;SDS011;11346;50.150;8.150;2022-08-14T00:14:07;5.10;;;4.67;;
22357;SDS011;11346;50.150;8.150;2022-08-14T00:16:35;5.30;;;4.80;;
22357;SDS011;11346;50.150;8.150;2022-08-14T00:19:02;5.30;;;4.80;;
22357;SDS011;11346;50.150;8.150;2022-08-14T00:21:29;5.67;;;4.90;;
22357;SDS011;11346;50.150;8.150;2022-08-14T00:23:57;5.43;;;4.80;;
22357;SDS011;11346;50.150;8.150;2022-08-14T00:26:24;10.27;;;5.27;;
22357;SDS011;11346;50.150;8.150;2022-08-14T00:28:51;5.83;;;4.70;;
22357;SDS011;11346;50.150;8.150;2022-08-14T00:31:20;6.03;;;5.43;;
22357;SDS011;11346;50.150;8.150;2022-08-14T00:33:47;6.10;;;5.50;;
22357;SDS011;11346;50.150;8.150;2022-08-14T00:36:15;5.67;;;5.17;;
22357;SDS011;11346;50.150;8.150;2022-08-14T00:38:42;6.53;;;5.90;;
22357;SDS011;11346;50.150;8.150;2022-08-14T00:41:09;6.80;;;6.10;;
22357;SDS011;11346;50.150;8.150;2022-08-14T00:43:36;6.30;;;5.70;;
22357;SDS011;11346;50.150;8.150;2022-08-14T00:46:05;6.97;;;5.90;;
22357;SDS011;11346;50.150;8.150;2022-08-14T00:48:34;7.47;;;5.77;;
22357;SDS011;11346;50.150;8.150;2022-08-14T00:51:02;6.67;;;5.87;;
22357;SDS011;11346;50.150;8.150;2022-08-14T00:53:29;9.80;;;6.60;;
22357;SDS011;11346;50.150;8.150;2022-08-14T00:55:56;7.20;;;6.50;;
22357;SDS011;11346;50.150;8.150;2022-08-14T00:58:23;7.30;;;6.20;;
22357;SDS011;11346;50.150;8.150;2022-08-14T01:00:57;10.67;;;6.73;;
22357;SDS011;11346;50.150;8.150;2022-08-14T01:03:25;6.93;;;6.23;;
22357;SDS011;11346;50.150;8.150;2022-08-14T01:05:55;11.87;;;6.63;;
22357;SDS011;11346;50.150;8.150;2022-08-14T01:08:24;8.00;;;7.17;;
22357;SDS011;11346;50.150;8.150;2022-08-14T01:10:52;10.27;;;6.40;;
22357;SDS011;11346;50.150;8.150;2022-08-14T01:13:21;10.60;;;7.23;;
22357;SDS011;11346;50.150;8.150;2022-08-14T01:15:49;7.07;;;6.37;;
22357;SDS011;11346;50.150;8.150;2022-08-14T01:18:16;9.63;;;7.10;;
22357;SDS011;11346;50.150;8.150;2022-08-14T01:21:06;9.57;;;7.27;;
22357;SDS011;11346;50.150;8.150;2022-08-14T01:23:38;8.77;;;6.83;;
22357;SDS011;11346;50.150;8.150;2022-08-14T01:26:06;8.33;;;6.80;;
22357;SDS011;11346;50.150;8.150;2022-08-14T01:28:34;8.67;;;6.97;;
22357;SDS011;11346;50.150;8.150;2022-08-14T01:31:02;8.00;;;6.70;;
22357;SDS011;11346;50.150;8.150;2022-08-14T01:33:33;7.90;;;6.60;;
22357;SDS011;11346;50.150;8.150;2022-08-14T01:36:02;9.10;;;6.83;;
22357;SDS011;11346;50.150;8.150;2022-08-14T01:38:30;9.50;;;6.83;;
22357;SDS011;11346;50.150;8.150;2022-08-14T01:41:00;9.13;;;7.10;;
22357;SDS011;11346;50.150;8.150;2022-08-14T01:43:28;8.03;;;6.83;;
22357;SDS011;11346;50.150;8.150;2022-08-14T01:45:56;8.80;;;7.10;;
22357;SDS011;11346;50.150;8.150;2022-08-14T01:48:24;9.17;;;6.80;;
22357;SDS011;11346;50.150;8.150;2022-08-14T01:50:54;7.43;;;6.30;;
22357;SDS011;11346;50.150;8.150;2022-08-14T01:53:21;8.73;;;7.40;;
22357;SDS011;11346;50.150;8.150;2022-08-14T01:55:48;7.40;;;6.60;;
22357;SDS011;11346;50.150;8.150;2022-08-14T01:58:17;13.30;;;7.00;;
22357;SDS011;11346;50.150;8.150;2022-08-14T02:00:47;7.53;;;6.83;;
22357;SDS011;11346;50.150;8.150;2022-08-14T02:03:18;7.70;;;6.10;;
22357;SDS011;11346;50.150;8.150;2022-08-14T02:05:45;10.70;;;7.43;;
22357;SDS011;11346;50.150;8.150;2022-08-14T02:08:12;8.50;;;6.63;;
22357;SDS011;11346;50.150;8.150;2022-08-14T02:10:39;7.57;;;6.70;;
22357;SDS011;11346;50.150;8.150;2022-08-14T02:13:07;9.03;;;6.83;;
22357;SDS011;11346;50.150;8.150;2022-08-14T02:15:36;7.57;;;6.77;;
22357;SDS011;11346;50.150;8.150;2022-08-14T02:18:05;10.50;;;7.23;;
22357;SDS011;11346;50.150;8.150;2022-08-14T02:20:32;7.93;;;6.80;;
22357;SDS011;11346;50.150;8.150;2022-08-14T02:22:59;7.40;;;6.70;;
22357;SDS011;11346;50.150;8.150;2022-08-14T02:25:27;8.53;;;6.33;;
22357;SDS011;11346;50.150;8.150;2022-08-14T02:27:56;8.67;;;7.00;;
22357;SDS011;11346;50.150;8.150;2022-08-14T02:30:23;7.90;;;6.90;;
22357;SDS011;11346;50.150;8.150;2022-08-14T02:32:52;7.63;;;6.80;;
22357;SDS011;11346;50.150;8.150;2022-08-14T02:35:19;11.10;;;6.77;;
22357;SDS011;11346;50.150;8.150;2022-08-14T02:37:49;9.33;;;7.07;;
22357;SDS011;11346;50.150;8.150;2022-08-14T02:40:17;7.90;;;6.50;;
22357;SDS011;11346;50.150;8.150;2022-08-14T02:42:44;8.17;;;7.03;;
22357;SDS011;11346;50.150;8.150;2022-08-14T02:45:11;8.17;;;6.67;;
22357;SDS011;11346;50.150;8.150;2022-08-14T02:47:39;8.63;;;7.00;;
22357;SDS011;11346;50.150;8.150;2022-08-14T02:50:08;7.70;;;7.00;;
22357;SDS011;11346;50.150;8.150;2022-08-14T02:52:35;8.40;;;6.83;;
22357;SDS011;11346;50.150;8.150;2022-08-14T02:55:03;7.90;;;7.10;;
22357;SDS011;11346;50.150;8.150;2022-08-14T02:57:30;8.23;;;7.30;;
22357;SDS011;11346;50.150;8.150;2022-08-14T02:59:57;7.27;;;6.57;;
22357;SDS011;11346;50.150;8.150;2022-08-14T03:02:26;9.77;;;6.97;;
22357;SDS011;11346;50.150;8.150;2022-08-14T03:04:57;8.30;;;6.90;;
22357;SDS011;11346;50.150;8.150;2022-08-14T03:07:26;8.07;;;6.97;;
22357;SDS011;11346;50.150;8.150;2022-08-14T03:09:53;8.40;;;6.93;;
22357;SDS011;11346;50.150;8.150;2022-08-14T03:12:20;9.73;;;7.43;;
22357;SDS011;11346;50.150;8.150;2022-08-14T03:14:47;10.13;;;7.37;;
22357;SDS011;11346;50.150;8.150;2022-08-14T03:17:16;8.47;;;7.23;;
22357;SDS011;11346;50.150;8.150;2022-08-14T03:19:43;8.03;;;6.97;;
22357;SDS011;11346;50.150;8.150;2022-08-14T03:22:10;8.60;;;7.30;;
22357;SDS011;11346;50.150;8.150;2022-08-14T03:24:39;8.40;;;7.50;;
22357;SDS011;11346;50.150;8.150;2022-08-14T03:27:06;8.17;;;7.20;;
22357;SDS011;11346;50.150;8.150;2022-08-14T03:29:36;9.07;;;7.63;;
22357;SDS011;11346;50.150;8.150;2022-08-14T03:32:05;7.40;;;6.70;;
22357;SDS011;11346;50.150;8.150;2022-08-14T03:34:32;7.93;;;7.13;;
22357;SDS011;11346;50.150;8.150;2022-08-14T03:36:59;9.93;;;7.70;;
22357;SDS011;11346;50.150;8.150;2022-08-14T03:39:26;10.13;;;7.17;;
22357;SDS011;11346;50.150;8.150;2022-08-14T03:41:55;7.93;;;7.13;;
22357;SDS011;11346;50.150;8.150;2022-08-14T03:44:22;9.83;;;7.80;;
22357;SDS011;11346;50.150;8.150;2022-08-14T03:46:50;7.90;;;7.10;;
22357;SDS011;11346;50.150;8.150;2022-08-14T03:49:19;11.60;;;7.53;;
22357;SDS011;11346;50.150;8.150;2022-08-14T03:51:47;8.00;;;7.27;;
22357;SDS011;11346;50.150;8.150;2022-08-14T03:54:15;9.13;;;7.80;;
22357;SDS011;11346;50.150;8.150;2022-08-14T03:56:42;8.10;;;7.30;;
22357;SDS011;11346;50.150;8.150;2022-08-14T03:59:11;10.07;;;8.00;;
22357;SDS011;11346;50.150;8.150;2022-08-14T04:01:38;7.93;;;7.13;;
22357;SDS011;11346;50.150;8.150;2022-08-14T04:04:06;10.53;;;7.87;;
22357;SDS011;11346;50.150;8.150;2022-08-14T04:06:35;8.60;;;7.23;;
22357;SDS011;11346;50.150;8.150;2022-08-14T04:09:03;8.47;;;7.53;;
22357;SDS011;11346;50.150;8.150;2022-08-14T04:11:31;8.80;;;7.90;;
22357;SDS011;11346;50.150;8.150;2022-08-14T04:13:59;10.73;;;7.90;;
22357;SDS011;11346;50.150;8.150;2022-08-14T04:16:27;12.07;;;7.93;;
22357;SDS011;11346;50.150;8.150;2022-08-14T04:18:55;8.10;;;7.30;;
22357;SDS011;11346;50.150;8.150;2022-08-14T04:21:23;9.60;;;7.60;;
22357;SDS011;11346;50.150;8.150;2022-08-14T04:23:52;8.47;;;7.67;;
22357;SDS011;11346;50.150;8.150;2022-08-14T04:26:19;10.27;;;7.67;;
22357;SDS011;11346;50.150;8.150;2022-08-14T04:28:47;8.93;;;7.57;;
22357;SDS011;11346;50.150;8.150;2022-08-14T04:31:15;11.50;;;8.30;;
22357;SDS011;11346;50.150;8.150;2022-08-14T04:33:43;11.73;;;8.70;;
22357;SDS011;11346;50.150;8.150;2022-08-14T04:36:12;9.30;;;8.00;;
22357;SDS011;11346;50.150;8.150;2022-08-14T04:38:39;8.67;;;7.77;;
22357;SDS011;11346;50.150;8.150;2022-08-14T04:41:24;8.77;;;7.87;;
22357;SDS011;11346;50.150;8.150;2022-08-14T04:44:09;11.57;;;8.20;;
22357;SDS011;11346;50.150;8.150;2022-08-14T04:46:36;9.37;;;7.80;;
22357;SDS011;11346;50.150;8.150;2022-08-14T04:49:04;13.30;;;8.43;;
22357;SDS011;11346;50.150;8.150;2022-08-14T04:51:31;9.60;;;8.10;;
22357;SDS011;11346;50.150;8.150;2022-08-14T04:53:58;10.70;;;8.03;;
22357;SDS011;11346;50.150;8.150;2022-08-14T04:56:25;10.67;;;8.07;;
22357;SDS011;11346;50.150;8.150;2022-08-14T04:58:53;9.33;;;8.03;;
22357;SDS011;11346;50.150;8.150;2022-08-14T05:01:21;9.47;;;8.57;;
22357;SDS011;11346;50.150;8.150;2022-08-14T05:03:49;10.73;;;8.63;;
22357;SDS011;11346;50.150;8.150;2022-08-14T05:06:17;10.10;;;8.20;;
22357;SDS011;11346;50.150;8.150;2022-08-14T05:08:45;8.93;;;8.00;;
22357;SDS011;11346;50.150;8.150;2022-08-14T05:11:12;9.50;;;7.90;;
22357;SDS011;11346;50.150;8.150;2022-08-14T05:13:40;9.00;;;8.10;;
22357;SDS011;11346;50.150;8.150;2022-08-14T05:16:08;10.47;;;7.93;;
22357;SDS011;11346;50.150;8.150;2022-08-14T05:18:37;9.40;;;8.17;;
22357;SDS011;11346;50.150;8.150;2022-08-14T05:21:05;11.43;;;8.40;;
22357;SDS011;11346;50.150;8.150;2022-08-14T05:23:35;9.77;;;8.20;;
22357;SDS011;11346;50.150;8.150;2022-08-14T05:26:03;9.17;;;7.90;;
22357;SDS011;11346;50.150;8.150;2022-08-14T05:28:37;9.50;;;8.20;;
22357;SDS011;11346;50.150;8.150;2022-08-14T05:31:06;10.37;;;8.63;;
22357;SDS011;11346;50.150;8.150;2022-08-14T05:33:34;11.73;;;8.63;;
22357;SDS011;11346;50.150;8.150;2022-08-14T05:36:03;8.83;;;7.90;;
22357;SDS011;11346;50.150;8.150;2022-08-14T05:38:32;11.00;;;8.57;;
22357;SDS011;11346;50.150;8.150;2022-08-14T05:41:02;12.23;;;8.50;;
22357;SDS011;11346;50.150;8.150;2022-08-14T05:43:29;11.60;;;8.33;;
22357;SDS011;11346;50.150;8.150;2022-08-14T05:45:57;9.33;;;8.30;;
22357;SDS011;11346;50.150;8.150;2022-08-14T05:48:25;9.50;;;8.60;;
22357;SDS011;11346;50.150;8.150;2022-08-14T05:50:52;10.77;;;8.53;;
22357;SDS011;11346;50.150;8.150;2022-08-14T05:53:20;11.83;;;8.13;;
22357;SDS011;11346;50.150;8.150;2022-08-14T05:55:48;8.43;;;7.53;;
22357;SDS011;11346;50.150;8.150;2022-08-14T05:58:17;10.03;;;8.00;;
22357;SDS011;11346;50.150;8.150;2022-08-14T06:00:44;9.17;;;8.03;;
22357;SDS011;11346;50.150;8.150;2022-08-14T06:03:12;8.77;;;7.87;;
22357;SDS011;11346;50.150;8.150;2022-08-14T06:05:40;9.40;;;8.27;;
22357;SDS011;11346;50.150;8.150;2022-08-14T06:08:12;9.03;;;7.87;;
22357;SDS011;11346;50.150;8.150;2022-08-14T06:10:40;10.20;;;8.30;;
22357;SDS011;11346;50.150;8.150;2022-08-14T06:13:08;11.57;;;8.47;;
22357;SDS011;11346;50.150;8.150;2022-08-14T06:15:36;9.30;;;8.40;;
22357;SDS011;11346;50.150;8.150;2022-08-14T06:18:03;8.97;;;8.03;;
22357;SDS011;11346;50.150;8.150;2022-08-14T06:20:30;9.63;;;7.93;;
22357;SDS011;11346;50.150;8.150;2022-08-14T06:22:58;8.87;;;8.07;;
22357;SDS011;11346;50.150;8.150;2022-08-14T06:25:25;9.57;;;8.03;;
22357;SDS011;11346;50.150;8.150;2022-08-14T06:27:53;10.73;;;8.30;;
22357;SDS011;11346;50.150;8.150;2022-08-14T06:30:23;8.90;;;8.00;;
22357;SDS011;11346;50.150;8.150;2022-08-14T06:32:52;10.40;;;7.63;;
22357;SDS011;11346;50.150;8.150;2022-08-14T06:35:19;9.23;;;7.80;;
22357;SDS011;11346;50.150;8.150;2022-08-14T06:37:48;9.33;;;8.27;;
22357;SDS011;11346;50.150;8.150;2022-08-14T06:40:16;16.73;;;7.83;;
22357;SDS011;11346;50.150;8.150;2022-08-14T06:42:43;9.53;;;7.67;;
22357;SDS011;11346;50.150;8.150;2022-08-14T06:45:10;9.07;;;7.97;;
22357;SDS011;11346;50.150;8.150;2022-08-14T06:47:38;8.67;;;7.83;;
22357;SDS011;11346;50.150;8.150;2022-08-14T06:50:09;11.80;;;7.50;;
22357;SDS011;11346;50.150;8.150;2022-08-14T06:52:37;12.13;;;7.27;;
22357;SDS011;11346;50.150;8.150;2022-08-14T06:55:05;11.77;;;7.50;;
22357;SDS011;11346;50.150;8.150;2022-08-14T06:57:36;10.03;;;7.50;;
22357;SDS011;11346;50.150;8.150;2022-08-14T07:00:05;8.37;;;7.40;;
22357;SDS011;11346;50.150;8.150;2022-08-14T07:02:32;8.70;;;7.80;;
22357;SDS011;11346;50.150;8.150;2022-08-14T07:05:18;7.80;;;7.10;;
22357;SDS011;11346;50.150;8.150;2022-08-14T07:08:03;8.10;;;7.30;;
22357;SDS011;11346;50.150;8.150;2022-08-14T07:10:31;8.57;;;6.50;;
22357;SDS011;11346;50.150;8.150;2022-08-14T07:12:58;7.83;;;7.03;;
22357;SDS011;11346;50.150;8.150;2022-08-14T07:15:25;7.50;;;6.80;;
22357;SDS011;11346;50.150;8.150;2022-08-14T07:17:52;8.53;;;6.40;;
22357;SDS011;11346;50.150;8.150;2022-08-14T07:20:21;7.97;;;6.90;;
22357;SDS011;11346;50.150;8.150;2022-08-14T07:22:48;7.27;;;6.57;;
22357;SDS011;11346;50.150;8.150;2022-08-14T07:25:15;9.63;;;7.30;;
22357;SDS011;11346;50.150;8.150;2022-08-14T07:27:43;7.23;;;6.63;;
22357;SDS011;11346;50.150;8.150;2022-08-14T07:30:10;14.77;;;7.23;;
22357;SDS011;11346;50.150;8.150;2022-08-14T07:32:38;7.27;;;6.30;;
22357;SDS011;11346;50.150;8.150;2022-08-14T07:35:05;7.03;;;6.33;;
22357;SDS011;11346;50.150;8.150;2022-08-14T07:37:34;7.47;;;6.77;;
22357;SDS011;11346;50.150;8.150;2022-08-14T07:40:02;8.13;;;7.20;;
22357;SDS011;11346;50.150;8.150;2022-08-14T07:42:29;7.27;;;6.57;;
22357;SDS011;11346;50.150;8.150;2022-08-14T07:44:57;6.67;;;6.07;;
22357;SDS011;11346;50.150;8.150;2022-08-14T07:47:25;7.60;;;6.90;;
22357;SDS011;11346;50.150;8.150;2022-08-14T07:49:55;6.83;;;6.13;;
22357;SDS011;11346;50.150;8.150;2022-08-14T07:52:25;7.37;;;6.63;;
22357;SDS011;11346;50.150;8.150;2022-08-14T07:54:53;9.23;;;6.80;;
22357;SDS011;11346;50.150;8.150;2022-08-14T07:57:21;7.37;;;6.67;;
22357;SDS011;11346;50.150;8.150;2022-08-14T07:59:48;7.03;;;6.33;;
22357;SDS011;11346;50.150;8.150;2022-08-14T08:02:16;9.47;;;6.83;;
22357;SDS011;11346;50.150;8.150;2022-08-14T08:04:44;8.37;;;7.20;;
22357;SDS011;11346;50.150;8.150;2022-08-14T08:07:12;6.93;;;6.33;;
22357;SDS011;11346;50.150;8.150;2022-08-14T08:09:41;7.30;;;6.70;;
22357;SDS011;11346;50.150;8.150;2022-08-14T08:12:10;7.57;;;6.43;;
22357;SDS011;11346;50.150;8.150;2022-08-14T08:14:40;7.00;;;6.40;;
22357;SDS011;11346;50.150;8.150;2022-08-14T08:17:08;7.80;;;7.00;;
22357;SDS011;11346;50.150;8.150;2022-08-14T08:19:37;7.37;;;6.67;;
22357;SDS011;11346;50.150;8.150;2022-08-14T08:22:04;7.60;;;6.80;;
22357;SDS011;11346;50.150;8.150;2022-08-14T08:24:31;9.63;;;6.67;;
22357;SDS011;11346;50.150;8.150;2022-08-14T08:26:59;8.00;;;6.83;;
22357;SDS011;11346;50.150;8.150;2022-08-14T08:29:28;7.17;;;6.57;;
22357;SDS011;11346;50.150;8.150;2022-08-14T08:31:55;7.27;;;6.57;;
22357;SDS011;11346;50.150;8.150;2022-08-14T08:34:23;8.87;;;6.50;;
22357;SDS011;11346;50.150;8.150;2022-08-14T08:36:51;8.00;;;7.10;;
22357;SDS011;11346;50.150;8.150;2022-08-14T08:39:18;9.13;;;6.33;;
22357;SDS011;11346;50.150;8.150;2022-08-14T08:41:46;6.67;;;6.07;;
22357;SDS011;11346;50.150;8.150;2022-08-14T08:44:13;6.73;;;6.13;;
22357;SDS011;11346;50.150;8.150;2022-08-14T08:46:43;7.40;;;6.73;;
22357;SDS011;11346;50.150;8.150;2022-08-14T08:49:11;7.03;;;6.20;;
22357;SDS011;11346;50.150;8.150;2022-08-14T08:51:38;6.70;;;5.73;;
22357;SDS011;11346;50.150;8.150;2022-08-14T08:54:06;7.07;;;6.47;;
22357;SDS011;11346;50.150;8.150;2022-08-14T08:56:35;7.53;;;6.80;;
22357;SDS011;11346;50.150;8.150;2022-08-14T08:59:02;7.40;;;6.70;;
22357;SDS011;11346;50.150;8.150;2022-08-14T09:01:30;7.83;;;7.13;;
22357;SDS011;11346;50.150;8.150;2022-08-14T09:04:02;6.90;;;6.20;;
22357;SDS011;11346;50.150;8.150;2022-08-14T09:06:29;6.63;;;6.03;;
22357;SDS011;11346;50.150;8.150;2022-08-14T09:08:58;6.70;;;6.10;;
22357;SDS011;11346;50.150;8.150;2022-08-14T09:11:25;6.27;;;5.67;;
22357;SDS011;11346;50.150;8.150;2022-08-14T09:13:52;6.07;;;5.47;;
22357;SDS011;11346;50.150;8.150;2022-08-14T09:16:20;8.37;;;6.33;;
22357;SDS011;11346;50.150;8.150;2022-08-14T09:18:48;7.43;;;6.27;;
22357;SDS011;11346;50.150;8.150;2022-08-14T09:21:17;6.33;;;5.80;;
22357;SDS011;11346;50.150;8.150;2022-08-14T09:23:45;9.03;;;5.83;;
22357;SDS011;11346;50.150;8.150;2022-08-14T09:26:12;6.40;;;5.50;;
22357;SDS011;11346;50.150;8.150;2022-08-14T09:28:39;7.37;;;5.27;;
22357;SDS011;11346;50.150;8.150;2022-08-14T09:31:07;5.93;;;5.20;;
22357;SDS011;11346;50.150;8.150;2022-08-14T09:36:24;5.30;;;4.80;;
22357;SDS011;11346;50.150;8.150;2022-08-14T09:38:53;4.97;;;4.57;;
22357;SDS011;11346;50.150;8.150;2022-08-14T09:41:29;5.27;;;4.40;;
22357;SDS011;11346;50.150;8.150;2022-08-14T09:44:02;4.23;;;3.83;;
22357;SDS011;11346;50.150;8.150;2022-08-14T09:46:31;4.70;;;4.30;;
22357;SDS011;11346;50.150;8.150;2022-08-14T09:48:59;5.33;;;4.03;;
22357;SDS011;11346;50.150;8.150;2022-08-14T09:51:28;4.67;;;3.90;;
22357;SDS011;11346;50.150;8.150;2022-08-14T09:53:59;4.50;;;4.10;;
22357;SDS011;11346;50.150;8.150;2022-08-14T09:56:27;4.27;;;3.87;;
22357;SDS011;11346;50.150;8.150;2022-08-14T09:58:54;4.50;;;4.10;;
22357;SDS011;11346;50.150;8.150;2022-08-14T10:01:33;5.00;;;4.60;;
22357;SDS011;11346;50.150;8.150;2022-08-14T10:04:04;5.23;;;4.83;;
22357;SDS011;11346;50.150;8.150;2022-08-14T10:06:41;5.13;;;4.50;;
22357;SDS011;11346;50.150;8.150;2022-08-14T10:09:09;4.80;;;4.40;;
22357;SDS011;11346;50.150;8.150;2022-08-14T10:11:36;5.30;;;4.60;;
22357;SDS011;11346;50.150;8.150;2022-08-14T10:14:11;5.53;;;4.70;;
22357;SDS011;11346;50.150;8.150;2022-08-14T10:16:41;4.63;;;4.23;;
22357;SDS011;11346;50.150;8.150;2022-08-14T10:19:09;6.00;;;4.63;;
22357;SDS011;11346;50.150;8.150;2022-08-14T10:21:39;7.53;;;4.20;;
22357;SDS011;11346;50.150;8.150;2022-08-14T10:24:08;4.90;;;3.70;;
22357;SDS011;11346;50.150;8.150;2022-08-14T10:26:37;4.43;;;4.07;;
22357;SDS011;11346;50.150;8.150;2022-08-14T10:29:08;5.23;;;4.73;;
22357;SDS011;11346;50.150;8.150;2022-08-14T10:31:38;6.83;;;4.90;;
22357;SDS011;11346;50.150;8.150;2022-08-14T10:34:08;5.00;;;4.60;;
22357;SDS011;11346;50.150;8.150;2022-08-14T10:36:36;5.10;;;4.33;;
22357;SDS011;11346;50.150;8.150;2022-08-14T10:39:07;6.43;;;4.40;;
22357;SDS011;11346;50.150;8.150;2022-08-14T10:41:36;4.90;;;4.50;;
22357;SDS011;11346;50.150;8.150;2022-08-14T10:44:05;7.33;;;4.07;;
22357;SDS011;11346;50.150;8.150;2022-08-14T10:46:37;5.20;;;4.33;;
22357;SDS011;11346;50.150;8.150;2022-08-14T10:49:05;5.40;;;4.70;;
22357;SDS011;11346;50.150;8.150;2022-08-14T10:51:33;5.23;;;4.53;;
22357;SDS011;11346;50.150;8.150;2022-08-14T10:54:05;6.67;;;4.10;;
22357;SDS011;11346;50.150;8.150;2022-08-14T10:56:33;5.30;;;4.20;;
22357;SDS011;11346;50.150;8.150;2022-08-14T10:59:01;6.10;;;4.33;;
22357;SDS011;11346;50.150;8.150;2022-08-14T11:01:29;3.90;;;3.50;;
22357;SDS011;11346;50.150;8.150;2022-08-14T11:03:56;3.50;;;3.30;;
22357;SDS011;11346;50.150;8.150;2022-08-14T11:06:24;3.57;;;3.27;;
22357;SDS011;11346;50.150;8.150;2022-08-14T11:08:51;4.00;;;3.57;;
22357;SDS011;11346;50.150;8.150;2022-08-14T11:11:21;4.53;;;4.13;;
22357;SDS011;11346;50.150;8.150;2022-08-14T11:13:53;3.83;;;3.43;;
22357;SDS011;11346;50.150;8.150;2022-08-14T11:16:21;5.43;;;3.57;;
22357;SDS011;11346;50.150;8.150;2022-08-14T11:18:49;4.80;;;3.60;;
22357;SDS011;11346;50.150;8.150;2022-08-14T11:21:17;5.43;;;3.67;;
